sensor_id;sensor_type;location;lat;lon;timestamp;P1;durP1;ratioP1;P2;durP2;ratioP2
75512;SDS011;64090;49.770;18.760;2024-02-14T00:02:35;29.80;;;18.10;;
75512;SDS011;64090;49.770;18.760;2024-02-14T00:05:39;45.80;;;22.60;;
75512;SDS011;64090;49.770;18.760;2024-02-14T00:08:43;36.50;;;17.90;;
75512;SDS011;64090;49.770;18.760;2024-02-14T00:11:46;41.30;;;19.60;;
75512;SDS011;64090;49.770;18.760;2024-02-14T00:14:50;48.90;;;25.80;;
75512;SDS011;64090;49.770;18.760;2024-02-14T00:17:53;49.30;;;26.20;;
75512;SDS011;64090;49.770;18.760;2024-02-14T00:20:56;44.60;;;24.60;;
75512;SDS011;64090;49.770;18.760;2024-02-14T00:23:59;50.70;;;26.40;;
75512;SDS011;64090;49.770;18.760;2024-02-14T00:27:04;50.30;;;27.70;;
75512;SDS011;64090;49.770;18.760;2024-02-14T00:30:07;46.90;;;24.80;;
75512;SDS011;64090;49.770;18.760;2024-02-14T00:33:10;42.10;;;23.90;;
75512;SDS011;64090;49.770;18.760;2024-02-14T00:36:14;40.90;;;22.70;;
75512;SDS011;64090;49.770;18.760;2024-02-14T00:39:17;41.20;;;22.40;;
75512;SDS011;64090;49.770;18.760;2024-02-14T00:42:20;37.20;;;20.60;;
75512;SDS011;64090;49.770;18.760;2024-02-14T00:45:23;38.60;;;21.70;;
75512;SDS011;64090;49.770;18.760;2024-02-14T00:48:26;40.40;;;20.40;;
75512;SDS011;64090;49.770;18.760;2024-02-14T00:51:29;35.00;;;19.60;;
75512;SDS011;64090;49.770;18.760;2024-02-14T00:54:32;39.10;;;21.20;;
75512;SDS011;64090;49.770;18.760;2024-02-14T00:57:35;33.90;;;19.00;;
75512;SDS011;64090;49.770;18.760;2024-02-14T01:00:38;34.90;;;19.10;;
75512;SDS011;64090;49.770;18.760;2024-02-14T01:03:41;33.10;;;19.90;;
75512;SDS011;64090;49.770;18.760;2024-02-14T01:06:44;31.80;;;17.40;;
75512;SDS011;64090;49.770;18.760;2024-02-14T01:09:47;28.50;;;16.10;;
75512;SDS011;64090;49.770;18.760;2024-02-14T01:12:49;35.60;;;19.90;;
75512;SDS011;64090;49.770;18.760;2024-02-14T01:15:52;39.20;;;22.00;;
75512;SDS011;64090;49.770;18.760;2024-02-14T01:18:55;31.90;;;18.30;;
75512;SDS011;64090;49.770;18.760;2024-02-14T01:21:59;27.60;;;16.30;;
75512;SDS011;64090;49.770;18.760;2024-02-14T01:25:02;29.00;;;16.90;;
75512;SDS011;64090;49.770;18.760;2024-02-14T01:28:07;30.90;;;17.40;;
75512;SDS011;64090;49.770;18.760;2024-02-14T01:31:10;25.60;;;13.90;;
75512;SDS011;64090;49.770;18.760;2024-02-14T01:34:14;24.50;;;13.70;;
75512;SDS011;64090;49.770;18.760;2024-02-14T01:37:17;24.90;;;13.40;;
75512;SDS011;64090;49.770;18.760;2024-02-14T01:40:20;26.50;;;15.40;;
75512;SDS011;64090;49.770;18.760;2024-02-14T01:43:23;26.40;;;15.40;;
75512;SDS011;64090;49.770;18.760;2024-02-14T01:49:30;23.90;;;15.10;;
75512;SDS011;64090;49.770;18.760;2024-02-14T01:52:34;21.40;;;14.50;;
75512;SDS011;64090;49.770;18.760;2024-02-14T01:55:37;21.00;;;12.00;;
75512;SDS011;64090;49.770;18.760;2024-02-14T01:58:41;20.40;;;11.80;;
75512;SDS011;64090;49.770;18.760;2024-02-14T02:01:45;17.00;;;10.60;;
75512;SDS011;64090;49.770;18.760;2024-02-14T02:04:49;19.90;;;12.70;;
75512;SDS011;64090;49.770;18.760;2024-02-14T02:07:53;16.20;;;10.60;;
75512;SDS011;64090;49.770;18.760;2024-02-14T02:10:56;19.70;;;10.70;;
75512;SDS011;64090;49.770;18.760;2024-02-14T02:13:59;12.40;;;7.10;;
75512;SDS011;64090;49.770;18.760;2024-02-14T02:17:02;16.40;;;8.10;;
75512;SDS011;64090;49.770;18.760;2024-02-14T02:20:10;13.90;;;8.90;;
75512;SDS011;64090;49.770;18.760;2024-02-14T02:23:13;12.70;;;7.40;;
75512;SDS011;64090;49.770;18.760;2024-02-14T02:26:17;14.20;;;9.00;;
75512;SDS011;64090;49.770;18.760;2024-02-14T02:29:20;16.40;;;9.50;;
75512;SDS011;64090;49.770;18.760;2024-02-14T02:32:24;13.20;;;7.40;;
75512;SDS011;64090;49.770;18.760;2024-02-14T02:35:26;11.40;;;7.80;;
75512;SDS011;64090;49.770;18.760;2024-02-14T02:38:30;12.40;;;6.50;;
75512;SDS011;64090;49.770;18.760;2024-02-14T02:41:33;11.00;;;5.80;;
75512;SDS011;64090;49.770;18.760;2024-02-14T02:44:37;13.30;;;9.70;;
75512;SDS011;64090;49.770;18.760;2024-02-14T02:47:41;16.30;;;8.80;;
75512;SDS011;64090;49.770;18.760;2024-02-14T02:50:44;11.10;;;6.60;;
75512;SDS011;64090;49.770;18.760;2024-02-14T02:53:47;12.10;;;6.90;;
75512;SDS011;64090;49.770;18.760;2024-02-14T02:56:50;11.60;;;5.80;;
75512;SDS011;64090;49.770;18.760;2024-02-14T02:59:53;13.00;;;7.00;;
75512;SDS011;64090;49.770;18.760;2024-02-14T03:02:56;11.90;;;6.00;;
75512;SDS011;64090;49.770;18.760;2024-02-14T03:06:00;7.50;;;5.40;;
75512;SDS011;64090;49.770;18.760;2024-02-14T03:09:06;9.00;;;6.30;;
75512;SDS011;64090;49.770;18.760;2024-02-14T03:12:10;8.10;;;4.80;;
75512;SDS011;64090;49.770;18.760;2024-02-14T03:15:14;7.50;;;4.40;;
75512;SDS011;64090;49.770;18.760;2024-02-14T03:18:17;8.80;;;4.30;;
75512;SDS011;64090;49.770;18.760;2024-02-14T03:21:21;9.90;;;5.20;;
75512;SDS011;64090;49.770;18.760;2024-02-14T03:24:23;8.30;;;4.40;;
75512;SDS011;64090;49.770;18.760;2024-02-14T03:27:29;7.90;;;4.70;;
75512;SDS011;64090;49.770;18.760;2024-02-14T03:30:36;7.50;;;4.80;;
75512;SDS011;64090;49.770;18.760;2024-02-14T03:33:42;6.60;;;3.70;;
75512;SDS011;64090;49.770;18.760;2024-02-14T03:36:45;6.50;;;4.00;;
75512;SDS011;64090;49.770;18.760;2024-02-14T03:39:48;7.20;;;4.10;;
75512;SDS011;64090;49.770;18.760;2024-02-14T03:42:51;8.30;;;5.20;;
75512;SDS011;64090;49.770;18.760;2024-02-14T03:45:54;7.80;;;4.50;;
75512;SDS011;64090;49.770;18.760;2024-02-14T03:48:58;7.50;;;4.60;;
75512;SDS011;64090;49.770;18.760;2024-02-14T03:52:01;7.30;;;4.60;;
75512;SDS011;64090;49.770;18.760;2024-02-14T03:55:13;9.00;;;3.90;;
75512;SDS011;64090;49.770;18.760;2024-02-14T03:58:16;6.60;;;4.10;;
75512;SDS011;64090;49.770;18.760;2024-02-14T04:01:24;9.80;;;5.80;;
75512;SDS011;64090;49.770;18.760;2024-02-14T04:04:27;6.20;;;3.50;;
75512;SDS011;64090;49.770;18.760;2024-02-14T04:07:31;6.30;;;4.20;;
75512;SDS011;64090;49.770;18.760;2024-02-14T04:10:34;7.60;;;4.00;;
75512;SDS011;64090;49.770;18.760;2024-02-14T04:13:37;7.30;;;3.60;;
75512;SDS011;64090;49.770;18.760;2024-02-14T04:16:40;7.10;;;4.30;;
75512;SDS011;64090;49.770;18.760;2024-02-14T04:19:43;5.80;;;4.10;;
75512;SDS011;64090;49.770;18.760;2024-02-14T04:22:46;7.00;;;3.40;;
75512;SDS011;64090;49.770;18.760;2024-02-14T04:25:49;7.90;;;5.50;;
75512;SDS011;64090;49.770;18.760;2024-02-14T04:28:52;11.80;;;7.20;;
75512;SDS011;64090;49.770;18.760;2024-02-14T04:31:55;12.20;;;7.60;;
75512;SDS011;64090;49.770;18.760;2024-02-14T04:34:58;8.10;;;5.40;;
75512;SDS011;64090;49.770;18.760;2024-02-14T04:38:02;11.10;;;4.40;;
75512;SDS011;64090;49.770;18.760;2024-02-14T04:41:05;7.40;;;4.40;;
75512;SDS011;64090;49.770;18.760;2024-02-14T04:44:08;9.20;;;5.60;;
75512;SDS011;64090;49.770;18.760;2024-02-14T04:47:11;6.90;;;4.30;;
75512;SDS011;64090;49.770;18.760;2024-02-14T04:50:14;7.80;;;4.70;;
75512;SDS011;64090;49.770;18.760;2024-02-14T04:53:17;9.10;;;5.20;;
75512;SDS011;64090;49.770;18.760;2024-02-14T04:56:20;7.20;;;4.00;;
75512;SDS011;64090;49.770;18.760;2024-02-14T04:59:23;8.70;;;4.40;;
75512;SDS011;64090;49.770;18.760;2024-02-14T05:02:26;9.60;;;5.70;;
75512;SDS011;64090;49.770;18.760;2024-02-14T05:05:29;8.70;;;4.30;;
75512;SDS011;64090;49.770;18.760;2024-02-14T05:08:32;7.10;;;3.50;;
75512;SDS011;64090;49.770;18.760;2024-02-14T05:11:35;9.10;;;4.30;;
75512;SDS011;64090;49.770;18.760;2024-02-14T05:14:38;7.80;;;4.20;;
75512;SDS011;64090;49.770;18.760;2024-02-14T05:17:42;8.70;;;4.60;;
75512;SDS011;64090;49.770;18.760;2024-02-14T05:20:48;9.70;;;4.20;;
75512;SDS011;64090;49.770;18.760;2024-02-14T05:23:52;6.70;;;3.90;;
75512;SDS011;64090;49.770;18.760;2024-02-14T05:26:55;8.20;;;4.40;;
75512;SDS011;64090;49.770;18.760;2024-02-14T05:29:58;8.30;;;4.40;;
75512;SDS011;64090;49.770;18.760;2024-02-14T05:33:00;9.50;;;6.00;;
75512;SDS011;64090;49.770;18.760;2024-02-14T05:36:04;11.90;;;5.50;;
75512;SDS011;64090;49.770;18.760;2024-02-14T05:39:08;9.20;;;5.00;;
75512;SDS011;64090;49.770;18.760;2024-02-14T05:42:12;11.00;;;5.70;;
75512;SDS011;64090;49.770;18.760;2024-02-14T05:45:15;10.70;;;5.00;;
75512;SDS011;64090;49.770;18.760;2024-02-14T05:48:19;12.00;;;6.30;;
75512;SDS011;64090;49.770;18.760;2024-02-14T05:51:23;10.10;;;6.40;;
75512;SDS011;64090;49.770;18.760;2024-02-14T05:54:26;9.30;;;4.90;;
75512;SDS011;64090;49.770;18.760;2024-02-14T05:57:29;8.60;;;4.80;;
75512;SDS011;64090;49.770;18.760;2024-02-14T06:00:32;11.30;;;5.00;;
75512;SDS011;64090;49.770;18.760;2024-02-14T06:03:35;8.10;;;5.50;;
75512;SDS011;64090;49.770;18.760;2024-02-14T06:06:38;9.40;;;5.00;;
75512;SDS011;64090;49.770;18.760;2024-02-14T06:09:41;9.60;;;5.60;;
75512;SDS011;64090;49.770;18.760;2024-02-14T06:12:44;8.80;;;5.10;;
75512;SDS011;64090;49.770;18.760;2024-02-14T06:15:47;8.40;;;3.50;;
75512;SDS011;64090;49.770;18.760;2024-02-14T06:18:50;11.30;;;4.40;;
75512;SDS011;64090;49.770;18.760;2024-02-14T06:21:53;7.80;;;4.60;;
75512;SDS011;64090;49.770;18.760;2024-02-14T06:24:56;7.90;;;4.00;;
75512;SDS011;64090;49.770;18.760;2024-02-14T06:27:59;6.20;;;3.30;;
75512;SDS011;64090;49.770;18.760;2024-02-14T06:31:02;8.90;;;4.10;;
75512;SDS011;64090;49.770;18.760;2024-02-14T06:34:05;12.60;;;5.40;;
75512;SDS011;64090;49.770;18.760;2024-02-14T06:37:10;7.00;;;4.20;;
75512;SDS011;64090;49.770;18.760;2024-02-14T06:40:12;8.30;;;4.20;;
75512;SDS011;64090;49.770;18.760;2024-02-14T06:43:15;6.30;;;4.10;;
75512;SDS011;64090;49.770;18.760;2024-02-14T06:46:18;7.70;;;4.30;;
75512;SDS011;64090;49.770;18.760;2024-02-14T06:49:21;8.60;;;4.50;;
75512;SDS011;64090;49.770;18.760;2024-02-14T06:52:24;6.70;;;3.80;;
75512;SDS011;64090;49.770;18.760;2024-02-14T06:55:27;7.70;;;4.60;;
75512;SDS011;64090;49.770;18.760;2024-02-14T06:58:31;10.90;;;5.90;;
75512;SDS011;64090;49.770;18.760;2024-02-14T07:01:34;8.60;;;4.90;;
75512;SDS011;64090;49.770;18.760;2024-02-14T07:04:37;13.90;;;6.70;;
75512;SDS011;64090;49.770;18.760;2024-02-14T07:07:40;16.90;;;9.80;;
75512;SDS011;64090;49.770;18.760;2024-02-14T07:10:44;17.90;;;9.00;;
75512;SDS011;64090;49.770;18.760;2024-02-14T07:13:47;21.30;;;10.80;;
75512;SDS011;64090;49.770;18.760;2024-02-14T07:16:50;20.40;;;9.80;;
75512;SDS011;64090;49.770;18.760;2024-02-14T07:19:53;21.70;;;9.00;;
75512;SDS011;64090;49.770;18.760;2024-02-14T07:22:56;18.70;;;9.10;;
75512;SDS011;64090;49.770;18.760;2024-02-14T07:29:29;13.90;;;8.20;;
75512;SDS011;64090;49.770;18.760;2024-02-14T07:32:32;13.00;;;5.90;;
75512;SDS011;64090;49.770;18.760;2024-02-14T07:35:36;17.80;;;8.10;;
75512;SDS011;64090;49.770;18.760;2024-02-14T07:38:40;18.20;;;10.10;;
75512;SDS011;64090;49.770;18.760;2024-02-14T07:41:45;12.00;;;7.90;;
75512;SDS011;64090;49.770;18.760;2024-02-14T07:44:48;16.70;;;8.10;;
75512;SDS011;64090;49.770;18.760;2024-02-14T07:47:51;14.90;;;7.80;;
75512;SDS011;64090;49.770;18.760;2024-02-14T07:50:54;15.10;;;9.30;;
75512;SDS011;64090;49.770;18.760;2024-02-14T07:53:58;10.60;;;5.70;;
75512;SDS011;64090;49.770;18.760;2024-02-14T07:57:01;14.90;;;7.10;;
75512;SDS011;64090;49.770;18.760;2024-02-14T08:00:05;9.30;;;5.40;;
75512;SDS011;64090;49.770;18.760;2024-02-14T08:03:12;10.20;;;6.70;;
75512;SDS011;64090;49.770;18.760;2024-02-14T08:06:16;11.20;;;6.90;;
75512;SDS011;64090;49.770;18.760;2024-02-14T08:09:19;10.80;;;5.30;;
75512;SDS011;64090;49.770;18.760;2024-02-14T08:12:21;6.90;;;3.90;;
75512;SDS011;64090;49.770;18.760;2024-02-14T08:15:25;5.50;;;3.60;;
75512;SDS011;64090;49.770;18.760;2024-02-14T08:18:28;8.00;;;3.90;;
75512;SDS011;64090;49.770;18.760;2024-02-14T08:21:31;5.60;;;3.80;;
75512;SDS011;64090;49.770;18.760;2024-02-14T08:24:34;6.60;;;4.00;;
75512;SDS011;64090;49.770;18.760;2024-02-14T08:27:37;5.50;;;3.30;;
75512;SDS011;64090;49.770;18.760;2024-02-14T08:30:40;5.30;;;2.60;;
75512;SDS011;64090;49.770;18.760;2024-02-14T08:33:43;7.40;;;3.80;;
75512;SDS011;64090;49.770;18.760;2024-02-14T08:36:46;5.30;;;4.10;;
75512;SDS011;64090;49.770;18.760;2024-02-14T08:39:50;7.30;;;3.90;;
75512;SDS011;64090;49.770;18.760;2024-02-14T08:42:53;5.40;;;3.10;;
75512;SDS011;64090;49.770;18.760;2024-02-14T08:45:56;4.70;;;3.10;;
75512;SDS011;64090;49.770;18.760;2024-02-14T08:49:00;7.10;;;3.70;;
75512;SDS011;64090;49.770;18.760;2024-02-14T08:52:14;5.60;;;3.60;;
75512;SDS011;64090;49.770;18.760;2024-02-14T08:55:16;6.50;;;3.80;;
75512;SDS011;64090;49.770;18.760;2024-02-14T08:58:21;6.60;;;3.90;;
75512;SDS011;64090;49.770;18.760;2024-02-14T09:01:24;6.70;;;3.90;;
75512;SDS011;64090;49.770;18.760;2024-02-14T09:04:28;7.30;;;4.70;;
75512;SDS011;64090;49.770;18.760;2024-02-14T09:07:32;7.30;;;4.30;;
75512;SDS011;64090;49.770;18.760;2024-02-14T09:10:36;7.30;;;5.20;;
75512;SDS011;64090;49.770;18.760;2024-02-14T09:13:39;6.70;;;4.80;;
75512;SDS011;64090;49.770;18.760;2024-02-14T09:16:45;7.50;;;4.60;;
75512;SDS011;64090;49.770;18.760;2024-02-14T09:19:49;6.50;;;5.10;;
75512;SDS011;64090;49.770;18.760;2024-02-14T09:22:51;7.30;;;4.70;;
75512;SDS011;64090;49.770;18.760;2024-02-14T09:25:56;5.60;;;3.30;;
75512;SDS011;64090;49.770;18.760;2024-02-14T09:28:59;7.70;;;4.10;;
75512;SDS011;64090;49.770;18.760;2024-02-14T09:32:02;6.40;;;4.30;;
75512;SDS011;64090;49.770;18.760;2024-02-14T09:35:06;5.70;;;3.60;;
75512;SDS011;64090;49.770;18.760;2024-02-14T09:38:12;6.20;;;3.70;;
75512;SDS011;64090;49.770;18.760;2024-02-14T09:44:29;7.70;;;5.50;;
75512;SDS011;64090;49.770;18.760;2024-02-14T09:47:32;5.60;;;3.70;;
75512;SDS011;64090;49.770;18.760;2024-02-14T09:50:36;6.90;;;4.00;;
75512;SDS011;64090;49.770;18.760;2024-02-14T09:53:39;7.40;;;4.60;;
75512;SDS011;64090;49.770;18.760;2024-02-14T09:56:43;7.10;;;4.90;;
75512;SDS011;64090;49.770;18.760;2024-02-14T09:59:53;7.70;;;4.80;;
75512;SDS011;64090;49.770;18.760;2024-02-14T10:02:57;7.80;;;4.70;;
75512;SDS011;64090;49.770;18.760;2024-02-14T10:06:00;5.10;;;2.80;;
75512;SDS011;64090;49.770;18.760;2024-02-14T10:09:04;4.20;;;3.50;;
75512;SDS011;64090;49.770;18.760;2024-02-14T10:15:49;4.00;;;2.10;;
75512;SDS011;64090;49.770;18.760;2024-02-14T10:18:52;3.50;;;2.30;;
75512;SDS011;64090;49.770;18.760;2024-02-14T10:21:58;4.90;;;3.90;;
75512;SDS011;64090;49.770;18.760;2024-02-14T10:25:03;4.20;;;2.50;;
75512;SDS011;64090;49.770;18.760;2024-02-14T10:28:14;6.90;;;4.80;;
75512;SDS011;64090;49.770;18.760;2024-02-14T10:31:18;5.50;;;3.60;;
75512;SDS011;64090;49.770;18.760;2024-02-14T10:34:24;5.70;;;2.90;;
75512;SDS011;64090;49.770;18.760;2024-02-14T10:37:29;6.30;;;2.20;;
75512;SDS011;64090;49.770;18.760;2024-02-14T10:40:33;5.40;;;3.20;;
75512;SDS011;64090;49.770;18.760;2024-02-14T10:43:37;4.90;;;3.20;;
75512;SDS011;64090;49.770;18.760;2024-02-14T10:46:43;4.80;;;3.50;;
75512;SDS011;64090;49.770;18.760;2024-02-14T10:52:57;4.80;;;2.40;;
75512;SDS011;64090;49.770;18.760;2024-02-14T10:56:02;5.20;;;3.20;;
75512;SDS011;64090;49.770;18.760;2024-02-14T10:59:05;4.50;;;3.40;;
75512;SDS011;64090;49.770;18.760;2024-02-14T11:02:12;5.60;;;3.20;;
75512;SDS011;64090;49.770;18.760;2024-02-14T11:05:16;4.90;;;3.30;;
75512;SDS011;64090;49.770;18.760;2024-02-14T11:08:21;5.00;;;3.00;;
75512;SDS011;64090;49.770;18.760;2024-02-14T11:11:28;5.30;;;3.60;;
75512;SDS011;64090;49.770;18.760;2024-02-14T11:14:32;6.40;;;4.00;;
75512;SDS011;64090;49.770;18.760;2024-02-14T11:17:41;6.30;;;3.80;;
75512;SDS011;64090;49.770;18.760;2024-02-14T11:20:45;5.40;;;3.20;;
75512;SDS011;64090;49.770;18.760;2024-02-14T11:23:54;6.00;;;4.30;;
75512;SDS011;64090;49.770;18.760;2024-02-14T11:26:57;5.50;;;3.30;;
75512;SDS011;64090;49.770;18.760;2024-02-14T11:30:00;5.40;;;3.10;;
75512;SDS011;64090;49.770;18.760;2024-02-14T11:36:19;7.00;;;3.70;;
75512;SDS011;64090;49.770;18.760;2024-02-14T11:39:22;7.00;;;4.00;;
75512;SDS011;64090;49.770;18.760;2024-02-14T11:42:25;5.80;;;3.30;;
75512;SDS011;64090;49.770;18.760;2024-02-14T11:45:29;5.90;;;3.30;;
75512;SDS011;64090;49.770;18.760;2024-02-14T11:48:32;6.30;;;3.30;;
75512;SDS011;64090;49.770;18.760;2024-02-14T11:51:35;5.30;;;3.60;;
75512;SDS011;64090;49.770;18.760;2024-02-14T11:54:38;5.40;;;3.00;;
75512;SDS011;64090;49.770;18.760;2024-02-14T11:57:41;8.30;;;5.60;;
75512;SDS011;64090;49.770;18.760;2024-02-14T12:00:45;6.30;;;3.50;;
75512;SDS011;64090;49.770;18.760;2024-02-14T12:03:49;8.00;;;3.80;;
75512;SDS011;64090;49.770;18.760;2024-02-14T12:06:53;6.60;;;4.10;;
75512;SDS011;64090;49.770;18.760;2024-02-14T12:09:57;7.90;;;4.80;;
75512;SDS011;64090;49.770;18.760;2024-02-14T12:13:06;4.90;;;2.90;;
75512;SDS011;64090;49.770;18.760;2024-02-14T12:16:10;7.20;;;3.70;;
75512;SDS011;64090;49.770;18.760;2024-02-14T12:19:14;6.40;;;3.40;;
75512;SDS011;64090;49.770;18.760;2024-02-14T12:22:19;5.60;;;3.70;;
75512;SDS011;64090;49.770;18.760;2024-02-14T12:25:22;8.70;;;4.40;;
75512;SDS011;64090;49.770;18.760;2024-02-14T12:28:25;7.20;;;3.90;;
75512;SDS011;64090;49.770;18.760;2024-02-14T12:31:28;9.80;;;4.90;;
75512;SDS011;64090;49.770;18.760;2024-02-14T12:34:33;6.90;;;3.90;;
75512;SDS011;64090;49.770;18.760;2024-02-14T12:37:36;6.30;;;3.40;;
75512;SDS011;64090;49.770;18.760;2024-02-14T12:40:40;8.30;;;3.60;;
75512;SDS011;64090;49.770;18.760;2024-02-14T12:43:47;6.10;;;4.00;;
75512;SDS011;64090;49.770;18.760;2024-02-14T12:46:50;4.50;;;2.70;;
75512;SDS011;64090;49.770;18.760;2024-02-14T12:49:53;2.50;;;1.60;;
75512;SDS011;64090;49.770;18.760;2024-02-14T12:52:56;2.60;;;1.70;;
75512;SDS011;64090;49.770;18.760;2024-02-14T12:55:59;8.30;;;2.70;;
75512;SDS011;64090;49.770;18.760;2024-02-14T12:59:03;6.40;;;3.70;;
75512;SDS011;64090;49.770;18.760;2024-02-14T13:02:06;4.90;;;2.90;;
75512;SDS011;64090;49.770;18.760;2024-02-14T13:05:09;3.30;;;2.20;;
75512;SDS011;64090;49.770;18.760;2024-02-14T13:08:12;3.90;;;1.90;;
75512;SDS011;64090;49.770;18.760;2024-02-14T13:11:15;3.10;;;1.90;;
75512;SDS011;64090;49.770;18.760;2024-02-14T13:14:19;3.60;;;2.40;;
75512;SDS011;64090;49.770;18.760;2024-02-14T13:17:22;5.20;;;1.70;;
75512;SDS011;64090;49.770;18.760;2024-02-14T13:20:25;2.80;;;2.00;;
75512;SDS011;64090;49.770;18.760;2024-02-14T13:23:29;4.80;;;2.20;;
75512;SDS011;64090;49.770;18.760;2024-02-14T13:26:32;4.20;;;1.70;;
75512;SDS011;64090;49.770;18.760;2024-02-14T13:29:37;2.80;;;1.60;;
75512;SDS011;64090;49.770;18.760;2024-02-14T13:32:40;2.90;;;1.50;;
75512;SDS011;64090;49.770;18.760;2024-02-14T13:35:44;4.20;;;1.20;;
75512;SDS011;64090;49.770;18.760;2024-02-14T13:38:47;3.80;;;1.60;;
75512;SDS011;64090;49.770;18.760;2024-02-14T13:41:49;4.80;;;2.50;;
75512;SDS011;64090;49.770;18.760;2024-02-14T13:44:53;8.00;;;3.50;;
75512;SDS011;64090;49.770;18.760;2024-02-14T13:48:03;3.90;;;1.40;;
75512;SDS011;64090;49.770;18.760;2024-02-14T13:51:07;3.60;;;1.50;;
75512;SDS011;64090;49.770;18.760;2024-02-14T13:54:11;3.90;;;1.40;;
75512;SDS011;64090;49.770;18.760;2024-02-14T13:57:14;2.10;;;1.30;;
75512;SDS011;64090;49.770;18.760;2024-02-14T14:00:20;4.60;;;1.80;;
75512;SDS011;64090;49.770;18.760;2024-02-14T14:03:23;3.90;;;2.10;;
75512;SDS011;64090;49.770;18.760;2024-02-14T14:06:26;5.80;;;2.30;;
75512;SDS011;64090;49.770;18.760;2024-02-14T14:09:30;3.40;;;2.10;;
75512;SDS011;64090;49.770;18.760;2024-02-14T14:12:35;2.90;;;1.40;;
75512;SDS011;64090;49.770;18.760;2024-02-14T14:15:38;3.10;;;1.30;;
75512;SDS011;64090;49.770;18.760;2024-02-14T14:18:41;4.90;;;1.60;;
75512;SDS011;64090;49.770;18.760;2024-02-14T14:21:44;2.70;;;1.30;;
75512;SDS011;64090;49.770;18.760;2024-02-14T14:24:47;4.40;;;1.80;;
75512;SDS011;64090;49.770;18.760;2024-02-14T14:27:50;5.30;;;2.50;;
75512;SDS011;64090;49.770;18.760;2024-02-14T14:30:53;11.80;;;5.10;;
75512;SDS011;64090;49.770;18.760;2024-02-14T14:33:57;5.90;;;3.00;;
75512;SDS011;64090;49.770;18.760;2024-02-14T14:37:01;6.60;;;3.10;;
75512;SDS011;64090;49.770;18.760;2024-02-14T14:40:05;5.90;;;3.20;;
75512;SDS011;64090;49.770;18.760;2024-02-14T14:43:11;9.20;;;5.80;;
75512;SDS011;64090;49.770;18.760;2024-02-14T14:46:15;6.40;;;3.20;;
75512;SDS011;64090;49.770;18.760;2024-02-14T14:49:21;6.40;;;3.00;;
75512;SDS011;64090;49.770;18.760;2024-02-14T14:52:24;5.20;;;2.80;;
75512;SDS011;64090;49.770;18.760;2024-02-14T14:58:51;9.60;;;5.40;;
75512;SDS011;64090;49.770;18.760;2024-02-14T15:01:54;10.10;;;4.70;;
75512;SDS011;64090;49.770;18.760;2024-02-14T15:04:57;8.50;;;4.50;;
75512;SDS011;64090;49.770;18.760;2024-02-14T15:08:00;5.20;;;3.20;;
75512;SDS011;64090;49.770;18.760;2024-02-14T15:11:03;4.10;;;2.50;;
75512;SDS011;64090;49.770;18.760;2024-02-14T15:14:07;5.50;;;2.90;;
75512;SDS011;64090;49.770;18.760;2024-02-14T15:17:10;6.80;;;2.70;;
75512;SDS011;64090;49.770;18.760;2024-02-14T15:20:13;5.40;;;3.00;;
75512;SDS011;64090;49.770;18.760;2024-02-14T15:23:16;3.90;;;1.90;;
75512;SDS011;64090;49.770;18.760;2024-02-14T15:26:19;4.60;;;2.70;;
75512;SDS011;64090;49.770;18.760;2024-02-14T15:29:26;4.40;;;2.20;;
75512;SDS011;64090;49.770;18.760;2024-02-14T15:32:47;3.10;;;1.80;;
75512;SDS011;64090;49.770;18.760;2024-02-14T15:36:09;2.70;;;1.60;;
75512;SDS011;64090;49.770;18.760;2024-02-14T15:39:18;3.50;;;1.60;;
75512;SDS011;64090;49.770;18.760;2024-02-14T15:42:21;10.10;;;4.80;;
75512;SDS011;64090;49.770;18.760;2024-02-14T15:45:25;9.80;;;4.50;;
75512;SDS011;64090;49.770;18.760;2024-02-14T15:48:28;10.90;;;5.30;;
75512;SDS011;64090;49.770;18.760;2024-02-14T15:51:32;27.30;;;8.90;;
75512;SDS011;64090;49.770;18.760;2024-02-14T15:54:36;14.70;;;6.00;;
75512;SDS011;64090;49.770;18.760;2024-02-14T15:57:46;8.20;;;4.30;;
75512;SDS011;64090;49.770;18.760;2024-02-14T16:00:50;7.90;;;3.90;;
75512;SDS011;64090;49.770;18.760;2024-02-14T16:03:53;10.70;;;5.60;;
75512;SDS011;64090;49.770;18.760;2024-02-14T16:06:56;7.40;;;4.10;;
75512;SDS011;64090;49.770;18.760;2024-02-14T16:09:59;12.60;;;6.30;;
75512;SDS011;64090;49.770;18.760;2024-02-14T16:13:02;25.00;;;11.70;;
75512;SDS011;64090;49.770;18.760;2024-02-14T16:16:06;12.50;;;5.70;;
75512;SDS011;64090;49.770;18.760;2024-02-14T16:19:10;9.60;;;5.00;;
75512;SDS011;64090;49.770;18.760;2024-02-14T16:22:14;8.40;;;4.10;;
75512;SDS011;64090;49.770;18.760;2024-02-14T16:25:18;8.00;;;4.70;;
75512;SDS011;64090;49.770;18.760;2024-02-14T16:28:22;10.80;;;5.50;;
75512;SDS011;64090;49.770;18.760;2024-02-14T16:31:25;15.00;;;8.70;;
75512;SDS011;64090;49.770;18.760;2024-02-14T16:34:29;131.50;;;50.90;;
75512;SDS011;64090;49.770;18.760;2024-02-14T16:37:32;38.30;;;17.10;;
75512;SDS011;64090;49.770;18.760;2024-02-14T16:40:35;81.10;;;34.20;;
75512;SDS011;64090;49.770;18.760;2024-02-14T16:43:38;165.80;;;62.50;;
75512;SDS011;64090;49.770;18.760;2024-02-14T16:46:41;137.00;;;50.60;;
75512;SDS011;64090;49.770;18.760;2024-02-14T16:49:44;34.10;;;13.50;;
75512;SDS011;64090;49.770;18.760;2024-02-14T16:52:47;16.60;;;8.50;;
75512;SDS011;64090;49.770;18.760;2024-02-14T16:55:49;15.60;;;7.50;;
75512;SDS011;64090;49.770;18.760;2024-02-14T16:58:52;20.80;;;9.00;;
75512;SDS011;64090;49.770;18.760;2024-02-14T17:01:55;16.30;;;7.30;;
75512;SDS011;64090;49.770;18.760;2024-02-14T17:04:58;14.00;;;7.50;;
75512;SDS011;64090;49.770;18.760;2024-02-14T17:08:01;16.70;;;10.30;;
75512;SDS011;64090;49.770;18.760;2024-02-14T17:11:04;21.20;;;10.30;;
75512;SDS011;64090;49.770;18.760;2024-02-14T17:14:07;22.50;;;11.60;;
75512;SDS011;64090;49.770;18.760;2024-02-14T17:17:12;19.20;;;10.20;;
75512;SDS011;64090;49.770;18.760;2024-02-14T17:20:15;15.90;;;9.80;;
75512;SDS011;64090;49.770;18.760;2024-02-14T17:23:19;16.00;;;9.10;;
75512;SDS011;64090;49.770;18.760;2024-02-14T17:26:22;33.50;;;14.30;;
75512;SDS011;64090;49.770;18.760;2024-02-14T17:29:25;54.40;;;23.80;;
75512;SDS011;64090;49.770;18.760;2024-02-14T17:32:28;32.20;;;17.30;;
75512;SDS011;64090;49.770;18.760;2024-02-14T17:35:41;21.80;;;10.20;;
75512;SDS011;64090;49.770;18.760;2024-02-14T17:38:44;24.10;;;13.10;;
75512;SDS011;64090;49.770;18.760;2024-02-14T17:41:47;21.80;;;11.20;;
75512;SDS011;64090;49.770;18.760;2024-02-14T17:44:50;27.20;;;13.20;;
75512;SDS011;64090;49.770;18.760;2024-02-14T17:47:53;28.60;;;15.30;;
75512;SDS011;64090;49.770;18.760;2024-02-14T17:50:56;35.10;;;18.90;;
75512;SDS011;64090;49.770;18.760;2024-02-14T17:53:59;30.00;;;12.60;;
75512;SDS011;64090;49.770;18.760;2024-02-14T17:57:02;35.20;;;16.50;;
75512;SDS011;64090;49.770;18.760;2024-02-14T18:00:06;29.80;;;15.00;;
75512;SDS011;64090;49.770;18.760;2024-02-14T18:03:12;34.20;;;16.30;;
75512;SDS011;64090;49.770;18.760;2024-02-14T18:06:16;32.60;;;16.30;;
75512;SDS011;64090;49.770;18.760;2024-02-14T18:09:19;30.80;;;14.70;;
75512;SDS011;64090;49.770;18.760;2024-02-14T18:12:22;29.90;;;16.00;;
75512;SDS011;64090;49.770;18.760;2024-02-14T18:15:28;25.80;;;15.40;;
75512;SDS011;64090;49.770;18.760;2024-02-14T18:18:31;32.70;;;16.60;;
75512;SDS011;64090;49.770;18.760;2024-02-14T18:21:36;28.70;;;16.50;;
75512;SDS011;64090;49.770;18.760;2024-02-14T18:24:39;32.30;;;15.30;;